sensor_id;sensor_type;location;lat;lon;timestamp;P1;durP1;ratioP1;P2;durP2;ratioP2
13263;SDS011;6700;51.988;7.646;2023-03-23T00:00:06;11.13;;;7.40;;
13263;SDS011;6700;51.988;7.646;2023-03-23T00:02:32;8.70;;;7.53;;
13263;SDS011;6700;51.988;7.646;2023-03-23T00:05:01;9.07;;;7.40;;
13263;SDS011;6700;51.988;7.646;2023-03-23T00:07:28;9.30;;;7.20;;
13263;SDS011;6700;51.988;7.646;2023-03-23T00:09:54;9.47;;;8.03;;
13263;SDS011;6700;51.988;7.646;2023-03-23T00:12:21;12.37;;;8.37;;
13263;SDS011;6700;51.988;7.646;2023-03-23T00:14:54;11.83;;;8.40;;
13263;SDS011;6700;51.988;7.646;2023-03-23T00:17:20;12.27;;;7.67;;
13263;SDS011;6700;51.988;7.646;2023-03-23T00:19:46;9.37;;;8.37;;
13263;SDS011;6700;51.988;7.646;2023-03-23T00:22:13;11.23;;;8.33;;
13263;SDS011;6700;51.988;7.646;2023-03-23T00:24:39;10.13;;;8.10;;
13263;SDS011;6700;51.988;7.646;2023-03-23T00:27:05;11.10;;;8.20;;
13263;SDS011;6700;51.988;7.646;2023-03-23T00:29:33;10.73;;;8.80;;
13263;SDS011;6700;51.988;7.646;2023-03-23T00:31:59;12.10;;;8.33;;
13263;SDS011;6700;51.988;7.646;2023-03-23T00:34:26;13.03;;;7.83;;
13263;SDS011;6700;51.988;7.646;2023-03-23T00:36:57;9.43;;;7.80;;
13263;SDS011;6700;51.988;7.646;2023-03-23T00:39:24;8.40;;;7.60;;
13263;SDS011;6700;51.988;7.646;2023-03-23T00:41:51;9.00;;;6.87;;
13263;SDS011;6700;51.988;7.646;2023-03-23T00:44:18;11.57;;;7.33;;
13263;SDS011;6700;51.988;7.646;2023-03-23T00:46:48;9.43;;;7.30;;
13263;SDS011;6700;51.988;7.646;2023-03-23T00:49:17;7.87;;;6.57;;
13263;SDS011;6700;51.988;7.646;2023-03-23T00:51:44;8.07;;;6.60;;
13263;SDS011;6700;51.988;7.646;2023-03-23T00:54:10;7.40;;;6.30;;
13263;SDS011;6700;51.988;7.646;2023-03-23T00:56:36;7.30;;;6.30;;
13263;SDS011;6700;51.988;7.646;2023-03-23T00:59:04;8.57;;;6.10;;
13263;SDS011;6700;51.988;7.646;2023-03-23T01:01:30;8.33;;;7.03;;
13263;SDS011;6700;51.988;7.646;2023-03-23T01:03:57;8.77;;;6.80;;
13263;SDS011;6700;51.988;7.646;2023-03-23T01:06:28;7.30;;;6.53;;
13263;SDS011;6700;51.988;7.646;2023-03-23T01:08:55;8.60;;;6.27;;
13263;SDS011;6700;51.988;7.646;2023-03-23T01:11:22;8.33;;;7.13;;
13263;SDS011;6700;51.988;7.646;2023-03-23T01:13:49;7.40;;;6.33;;
13263;SDS011;6700;51.988;7.646;2023-03-23T01:16:15;10.47;;;6.43;;
13263;SDS011;6700;51.988;7.646;2023-03-23T01:18:41;7.30;;;6.50;;
13263;SDS011;6700;51.988;7.646;2023-03-23T01:21:08;8.27;;;7.07;;
13263;SDS011;6700;51.988;7.646;2023-03-23T01:23:35;6.73;;;6.10;;
13263;SDS011;6700;51.988;7.646;2023-03-23T01:26:11;9.43;;;6.70;;
13263;SDS011;6700;51.988;7.646;2023-03-23T01:28:38;8.30;;;5.77;;
13263;SDS011;6700;51.988;7.646;2023-03-23T01:31:05;7.73;;;5.67;;
13263;SDS011;6700;51.988;7.646;2023-03-23T01:33:32;10.10;;;5.17;;
13263;SDS011;6700;51.988;7.646;2023-03-23T01:36:01;9.70;;;6.37;;
13263;SDS011;6700;51.988;7.646;2023-03-23T01:38:27;7.73;;;5.17;;
13263;SDS011;6700;51.988;7.646;2023-03-23T01:40:53;5.90;;;5.30;;
13263;SDS011;6700;51.988;7.646;2023-03-23T01:43:20;6.57;;;5.13;;
13263;SDS011;6700;51.988;7.646;2023-03-23T01:45:46;10.20;;;5.30;;
13263;SDS011;6700;51.988;7.646;2023-03-23T01:48:16;5.20;;;4.80;;
13263;SDS011;6700;51.988;7.646;2023-03-23T01:50:54;8.43;;;5.23;;
13263;SDS011;6700;51.988;7.646;2023-03-23T01:53:21;5.93;;;5.20;;
13263;SDS011;6700;51.988;7.646;2023-03-23T01:55:48;5.43;;;4.90;;
13263;SDS011;6700;51.988;7.646;2023-03-23T01:58:23;6.13;;;4.70;;
13263;SDS011;6700;51.988;7.646;2023-03-23T02:00:52;5.00;;;4.50;;
13263;SDS011;6700;51.988;7.646;2023-03-23T02:03:19;6.80;;;4.67;;
13263;SDS011;6700;51.988;7.646;2023-03-23T02:05:45;8.23;;;4.40;;
13263;SDS011;6700;51.988;7.646;2023-03-23T02:08:11;6.40;;;4.43;;
13263;SDS011;6700;51.988;7.646;2023-03-23T02:10:39;6.90;;;4.97;;
13263;SDS011;6700;51.988;7.646;2023-03-23T02:13:07;6.23;;;5.13;;
13263;SDS011;6700;51.988;7.646;2023-03-23T02:15:39;4.47;;;4.03;;
13263;SDS011;6700;51.988;7.646;2023-03-23T02:18:17;10.07;;;4.97;;
13263;SDS011;6700;51.988;7.646;2023-03-23T02:20:53;4.67;;;3.93;;
13263;SDS011;6700;51.988;7.646;2023-03-23T02:23:40;7.57;;;4.47;;
13263;SDS011;6700;51.988;7.646;2023-03-23T02:26:25;4.63;;;4.23;;
13263;SDS011;6700;51.988;7.646;2023-03-23T02:31:56;5.30;;;3.97;;
13263;SDS011;6700;51.988;7.646;2023-03-23T02:37:19;4.60;;;4.20;;
13263;SDS011;6700;51.988;7.646;2023-03-23T02:39:51;5.03;;;4.00;;
13263;SDS011;6700;51.988;7.646;2023-03-23T02:42:20;6.37;;;4.00;;
13263;SDS011;6700;51.988;7.646;2023-03-23T02:44:48;6.17;;;4.27;;
13263;SDS011;6700;51.988;7.646;2023-03-23T02:47:17;4.47;;;4.03;;
13263;SDS011;6700;51.988;7.646;2023-03-23T02:49:45;8.73;;;4.50;;
13263;SDS011;6700;51.988;7.646;2023-03-23T02:52:13;7.80;;;4.40;;
13263;SDS011;6700;51.988;7.646;2023-03-23T02:54:41;4.20;;;3.80;;
13263;SDS011;6700;51.988;7.646;2023-03-23T02:57:09;4.87;;;3.63;;
13263;SDS011;6700;51.988;7.646;2023-03-23T02:59:36;4.30;;;3.50;;
13263;SDS011;6700;51.988;7.646;2023-03-23T03:02:06;4.47;;;3.83;;
13263;SDS011;6700;51.988;7.646;2023-03-23T03:04:33;5.80;;;3.90;;
13263;SDS011;6700;51.988;7.646;2023-03-23T03:07:07;5.37;;;3.83;;
13263;SDS011;6700;51.988;7.646;2023-03-23T03:12:08;4.17;;;3.20;;
13263;SDS011;6700;51.988;7.646;2023-03-23T03:14:39;4.43;;;3.10;;
13263;SDS011;6700;51.988;7.646;2023-03-23T03:19:43;3.90;;;2.73;;
13263;SDS011;6700;51.988;7.646;2023-03-23T03:22:11;3.20;;;2.90;;
13263;SDS011;6700;51.988;7.646;2023-03-23T03:24:37;2.73;;;2.47;;
13263;SDS011;6700;51.988;7.646;2023-03-23T03:27:04;3.47;;;3.17;;
13263;SDS011;6700;51.988;7.646;2023-03-23T03:29:35;5.40;;;3.20;;
13263;SDS011;6700;51.988;7.646;2023-03-23T03:32:06;3.00;;;2.70;;
13263;SDS011;6700;51.988;7.646;2023-03-23T03:34:34;3.57;;;2.73;;
13263;SDS011;6700;51.988;7.646;2023-03-23T03:37:00;2.83;;;2.60;;
13263;SDS011;6700;51.988;7.646;2023-03-23T03:39:30;4.20;;;2.30;;
13263;SDS011;6700;51.988;7.646;2023-03-23T03:41:57;4.93;;;3.10;;
13263;SDS011;6700;51.988;7.646;2023-03-23T03:44:23;5.37;;;2.83;;
13263;SDS011;6700;51.988;7.646;2023-03-23T03:46:49;6.67;;;2.80;;
13263;SDS011;6700;51.988;7.646;2023-03-23T03:49:15;3.57;;;2.50;;
13263;SDS011;6700;51.988;7.646;2023-03-23T03:51:41;3.10;;;2.80;;
13263;SDS011;6700;51.988;7.646;2023-03-23T03:54:07;2.97;;;2.70;;
13263;SDS011;6700;51.988;7.646;2023-03-23T03:56:33;2.60;;;2.40;;
13263;SDS011;6700;51.988;7.646;2023-03-23T03:59:05;2.70;;;2.50;;
13263;SDS011;6700;51.988;7.646;2023-03-23T04:01:33;6.63;;;2.90;;
13263;SDS011;6700;51.988;7.646;2023-03-23T04:03:59;4.37;;;3.20;;
13263;SDS011;6700;51.988;7.646;2023-03-23T04:06:26;3.43;;;2.87;;
13263;SDS011;6700;51.988;7.646;2023-03-23T04:08:56;3.73;;;3.13;;
13263;SDS011;6700;51.988;7.646;2023-03-23T04:11:24;3.73;;;3.17;;
13263;SDS011;6700;51.988;7.646;2023-03-23T04:13:50;3.90;;;2.57;;
13263;SDS011;6700;51.988;7.646;2023-03-23T04:16:17;7.43;;;3.17;;
13263;SDS011;6700;51.988;7.646;2023-03-23T04:18:43;3.23;;;2.93;;
13263;SDS011;6700;51.988;7.646;2023-03-23T04:21:09;2.93;;;2.73;;
13263;SDS011;6700;51.988;7.646;2023-03-23T04:23:36;4.70;;;3.10;;
13263;SDS011;6700;51.988;7.646;2023-03-23T04:26:03;4.17;;;3.00;;
13263;SDS011;6700;51.988;7.646;2023-03-23T04:28:30;2.97;;;2.77;;
13263;SDS011;6700;51.988;7.646;2023-03-23T04:30:58;3.20;;;2.53;;
13263;SDS011;6700;51.988;7.646;2023-03-23T04:33:25;4.50;;;2.93;;
13263;SDS011;6700;51.988;7.646;2023-03-23T04:35:52;3.40;;;3.10;;
13263;SDS011;6700;51.988;7.646;2023-03-23T04:38:19;3.93;;;2.53;;
13263;SDS011;6700;51.988;7.646;2023-03-23T04:40:46;4.13;;;2.70;;
13263;SDS011;6700;51.988;7.646;2023-03-23T04:43:12;3.20;;;2.90;;
13263;SDS011;6700;51.988;7.646;2023-03-23T04:45:39;3.40;;;3.10;;
13263;SDS011;6700;51.988;7.646;2023-03-23T04:48:11;3.27;;;2.80;;
13263;SDS011;6700;51.988;7.646;2023-03-23T04:50:37;2.63;;;2.43;;
13263;SDS011;6700;51.988;7.646;2023-03-23T04:53:04;2.30;;;2.20;;
13263;SDS011;6700;51.988;7.646;2023-03-23T04:55:31;3.73;;;2.77;;
13263;SDS011;6700;51.988;7.646;2023-03-23T04:57:57;4.13;;;2.77;;
13263;SDS011;6700;51.988;7.646;2023-03-23T05:00:27;6.43;;;2.77;;
13263;SDS011;6700;51.988;7.646;2023-03-23T05:02:54;3.40;;;3.10;;
13263;SDS011;6700;51.988;7.646;2023-03-23T05:05:21;2.93;;;2.57;;
13263;SDS011;6700;51.988;7.646;2023-03-23T05:07:47;2.93;;;2.70;;
13263;SDS011;6700;51.988;7.646;2023-03-23T05:10:14;5.10;;;3.03;;
13263;SDS011;6700;51.988;7.646;2023-03-23T05:12:44;3.80;;;2.43;;
13263;SDS011;6700;51.988;7.646;2023-03-23T05:15:13;3.40;;;3.10;;
13263;SDS011;6700;51.988;7.646;2023-03-23T05:17:40;3.80;;;2.97;;
13263;SDS011;6700;51.988;7.646;2023-03-23T05:20:09;3.30;;;2.77;;
13263;SDS011;6700;51.988;7.646;2023-03-23T05:22:37;2.80;;;2.60;;
13263;SDS011;6700;51.988;7.646;2023-03-23T05:25:04;3.30;;;2.83;;
13263;SDS011;6700;51.988;7.646;2023-03-23T05:27:31;3.60;;;2.80;;
13263;SDS011;6700;51.988;7.646;2023-03-23T05:29:57;3.83;;;3.17;;
13263;SDS011;6700;51.988;7.646;2023-03-23T05:32:24;2.87;;;2.30;;
13263;SDS011;6700;51.988;7.646;2023-03-23T05:35:00;3.87;;;3.07;;
13263;SDS011;6700;51.988;7.646;2023-03-23T05:37:28;2.93;;;2.73;;
13263;SDS011;6700;51.988;7.646;2023-03-23T05:39:57;3.77;;;3.47;;
13263;SDS011;6700;51.988;7.646;2023-03-23T05:42:28;3.47;;;3.10;;
13263;SDS011;6700;51.988;7.646;2023-03-23T05:44:54;3.03;;;2.83;;
13263;SDS011;6700;51.988;7.646;2023-03-23T05:47:20;4.77;;;2.97;;
13263;SDS011;6700;51.988;7.646;2023-03-23T05:49:46;5.33;;;3.50;;
13263;SDS011;6700;51.988;7.646;2023-03-23T05:52:12;5.07;;;3.50;;
13263;SDS011;6700;51.988;7.646;2023-03-23T05:54:39;4.57;;;3.17;;
13263;SDS011;6700;51.988;7.646;2023-03-23T05:57:06;6.00;;;3.30;;
13263;SDS011;6700;51.988;7.646;2023-03-23T05:59:34;3.50;;;3.20;;
13263;SDS011;6700;51.988;7.646;2023-03-23T06:02:00;4.67;;;3.30;;
13263;SDS011;6700;51.988;7.646;2023-03-23T06:04:26;5.17;;;4.20;;
13263;SDS011;6700;51.988;7.646;2023-03-23T06:06:52;3.37;;;3.10;;
13263;SDS011;6700;51.988;7.646;2023-03-23T06:09:19;5.47;;;3.83;;
13263;SDS011;6700;51.988;7.646;2023-03-23T06:11:46;3.53;;;3.23;;
13263;SDS011;6700;51.988;7.646;2023-03-23T06:14:12;4.77;;;3.47;;
13263;SDS011;6700;51.988;7.646;2023-03-23T06:16:38;3.73;;;3.43;;
13263;SDS011;6700;51.988;7.646;2023-03-23T06:19:05;3.30;;;3.00;;
13263;SDS011;6700;51.988;7.646;2023-03-23T06:21:31;5.73;;;3.27;;
13263;SDS011;6700;51.988;7.646;2023-03-23T06:23:58;4.90;;;3.47;;
13263;SDS011;6700;51.988;7.646;2023-03-23T06:26:32;7.23;;;3.43;;
13263;SDS011;6700;51.988;7.646;2023-03-23T06:29:00;3.60;;;3.23;;
13263;SDS011;6700;51.988;7.646;2023-03-23T06:31:26;4.43;;;3.30;;
13263;SDS011;6700;51.988;7.646;2023-03-23T06:33:52;5.40;;;3.37;;
13263;SDS011;6700;51.988;7.646;2023-03-23T06:36:19;5.80;;;3.87;;
13263;SDS011;6700;51.988;7.646;2023-03-23T06:38:45;4.20;;;3.80;;
13263;SDS011;6700;51.988;7.646;2023-03-23T06:41:12;12.10;;;9.03;;
13263;SDS011;6700;51.988;7.646;2023-03-23T06:43:38;7.67;;;6.37;;
13263;SDS011;6700;51.988;7.646;2023-03-23T06:46:05;10.90;;;8.93;;
13263;SDS011;6700;51.988;7.646;2023-03-23T06:48:31;6.67;;;5.00;;
13263;SDS011;6700;51.988;7.646;2023-03-23T06:50:57;7.33;;;3.80;;
13263;SDS011;6700;51.988;7.646;2023-03-23T06:53:23;6.47;;;3.37;;
13263;SDS011;6700;51.988;7.646;2023-03-23T06:55:49;4.97;;;4.47;;
13263;SDS011;6700;51.988;7.646;2023-03-23T06:58:16;4.13;;;3.13;;
13263;SDS011;6700;51.988;7.646;2023-03-23T07:00:42;5.07;;;3.07;;
13263;SDS011;6700;51.988;7.646;2023-03-23T07:03:09;5.33;;;3.10;;
13263;SDS011;6700;51.988;7.646;2023-03-23T07:05:35;3.40;;;3.10;;
13263;SDS011;6700;51.988;7.646;2023-03-23T07:08:02;5.17;;;3.53;;
13263;SDS011;6700;51.988;7.646;2023-03-23T07:10:28;3.30;;;3.00;;
13263;SDS011;6700;51.988;7.646;2023-03-23T07:12:54;3.90;;;2.87;;
13263;SDS011;6700;51.988;7.646;2023-03-23T07:15:20;4.73;;;3.60;;
13263;SDS011;6700;51.988;7.646;2023-03-23T07:17:47;6.10;;;3.87;;
13263;SDS011;6700;51.988;7.646;2023-03-23T07:20:13;10.77;;;4.23;;
13263;SDS011;6700;51.988;7.646;2023-03-23T07:22:39;16.37;;;4.47;;
13263;SDS011;6700;51.988;7.646;2023-03-23T07:25:06;11.70;;;4.00;;
13263;SDS011;6700;51.988;7.646;2023-03-23T07:27:32;5.60;;;3.53;;
13263;SDS011;6700;51.988;7.646;2023-03-23T07:29:58;5.53;;;3.50;;
13263;SDS011;6700;51.988;7.646;2023-03-23T07:32:24;13.83;;;4.20;;
13263;SDS011;6700;51.988;7.646;2023-03-23T07:34:51;19.03;;;5.10;;
13263;SDS011;6700;51.988;7.646;2023-03-23T07:37:17;3.97;;;2.67;;
13263;SDS011;6700;51.988;7.646;2023-03-23T07:39:43;4.40;;;3.37;;
13263;SDS011;6700;51.988;7.646;2023-03-23T07:42:10;17.07;;;4.90;;
13263;SDS011;6700;51.988;7.646;2023-03-23T07:44:36;14.33;;;4.10;;
13263;SDS011;6700;51.988;7.646;2023-03-23T07:47:02;5.83;;;3.37;;
13263;SDS011;6700;51.988;7.646;2023-03-23T07:49:28;6.80;;;3.73;;
13263;SDS011;6700;51.988;7.646;2023-03-23T07:51:56;19.13;;;4.83;;
13263;SDS011;6700;51.988;7.646;2023-03-23T07:54:22;10.47;;;4.23;;
13263;SDS011;6700;51.988;7.646;2023-03-23T07:56:49;6.30;;;3.03;;
13263;SDS011;6700;51.988;7.646;2023-03-23T07:59:15;6.40;;;3.23;;
13263;SDS011;6700;51.988;7.646;2023-03-23T08:01:42;15.20;;;3.70;;
13263;SDS011;6700;51.988;7.646;2023-03-23T08:04:08;25.00;;;6.20;;
13263;SDS011;6700;51.988;7.646;2023-03-23T08:06:34;11.37;;;3.77;;
13263;SDS011;6700;51.988;7.646;2023-03-23T08:09:00;5.27;;;3.23;;
13263;SDS011;6700;51.988;7.646;2023-03-23T08:11:31;4.53;;;3.13;;
13263;SDS011;6700;51.988;7.646;2023-03-23T08:13:57;4.57;;;3.20;;
13263;SDS011;6700;51.988;7.646;2023-03-23T08:16:24;5.70;;;2.90;;
13263;SDS011;6700;51.988;7.646;2023-03-23T08:18:50;11.40;;;3.23;;
13263;SDS011;6700;51.988;7.646;2023-03-23T08:21:18;6.73;;;3.37;;
13263;SDS011;6700;51.988;7.646;2023-03-23T08:23:45;39.17;;;7.30;;
13263;SDS011;6700;51.988;7.646;2023-03-23T08:26:12;6.20;;;2.83;;
13263;SDS011;6700;51.988;7.646;2023-03-23T08:28:40;3.10;;;2.80;;
13263;SDS011;6700;51.988;7.646;2023-03-23T08:31:09;50.87;;;8.30;;
13263;SDS011;6700;51.988;7.646;2023-03-23T08:33:36;60.47;;;8.63;;
13263;SDS011;6700;51.988;7.646;2023-03-23T08:36:02;6.67;;;3.07;;
13263;SDS011;6700;51.988;7.646;2023-03-23T08:38:28;5.93;;;3.13;;
13263;SDS011;6700;51.988;7.646;2023-03-23T08:41:01;26.23;;;6.13;;
13263;SDS011;6700;51.988;7.646;2023-03-23T08:43:29;6.70;;;3.37;;
13263;SDS011;6700;51.988;7.646;2023-03-23T08:45:55;10.90;;;3.17;;
13263;SDS011;6700;51.988;7.646;2023-03-23T08:48:21;5.17;;;3.27;;
13263;SDS011;6700;51.988;7.646;2023-03-23T08:50:50;5.77;;;3.10;;
13263;SDS011;6700;51.988;7.646;2023-03-23T08:53:20;6.03;;;3.40;;
13263;SDS011;6700;51.988;7.646;2023-03-23T08:55:46;10.70;;;3.87;;
13263;SDS011;6700;51.988;7.646;2023-03-23T08:58:12;7.87;;;3.57;;
13263;SDS011;6700;51.988;7.646;2023-03-23T09:00:38;7.70;;;4.23;;
13263;SDS011;6700;51.988;7.646;2023-03-23T09:03:04;8.10;;;3.30;;
13263;SDS011;6700;51.988;7.646;2023-03-23T09:05:31;6.00;;;3.63;;
13263;SDS011;6700;51.988;7.646;2023-03-23T09:07:58;5.30;;;3.60;;
13263;SDS011;6700;51.988;7.646;2023-03-23T09:10:28;9.37;;;4.23;;
13263;SDS011;6700;51.988;7.646;2023-03-23T09:12:56;6.70;;;4.17;;
13263;SDS011;6700;51.988;7.646;2023-03-23T09:15:22;5.50;;;3.93;;
13263;SDS011;6700;51.988;7.646;2023-03-23T09:17:49;5.80;;;3.83;;
13263;SDS011;6700;51.988;7.646;2023-03-23T09:20:17;8.73;;;5.23;;
13263;SDS011;6700;51.988;7.646;2023-03-23T09:22:47;7.47;;;5.57;;
13263;SDS011;6700;51.988;7.646;2023-03-23T09:25:14;39.00;;;23.67;;
13263;SDS011;6700;51.988;7.646;2023-03-23T09:27:41;7.17;;;6.47;;
13263;SDS011;6700;51.988;7.646;2023-03-23T09:30:11;5.80;;;3.73;;
13263;SDS011;6700;51.988;7.646;2023-03-23T09:32:38;4.90;;;3.67;;
13263;SDS011;6700;51.988;7.646;2023-03-23T09:35:05;7.23;;;3.53;;
13263;SDS011;6700;51.988;7.646;2023-03-23T09:37:33;6.57;;;3.57;;
13263;SDS011;6700;51.988;7.646;2023-03-23T09:40:01;6.13;;;3.40;;
13263;SDS011;6700;51.988;7.646;2023-03-23T09:42:35;4.73;;;3.00;;
13263;SDS011;6700;51.988;7.646;2023-03-23T09:45:09;7.27;;;3.93;;
13263;SDS011;6700;51.988;7.646;2023-03-23T09:50:25;4.70;;;3.23;;
13263;SDS011;6700;51.988;7.646;2023-03-23T09:52:58;3.90;;;1.87;;
13263;SDS011;6700;51.988;7.646;2023-03-23T09:55:25;4.13;;;1.67;;
13263;SDS011;6700;51.988;7.646;2023-03-23T09:57:58;3.07;;;1.77;;
13263;SDS011;6700;51.988;7.646;2023-03-23T10:00:34;1.87;;;1.27;;
13263;SDS011;6700;51.988;7.646;2023-03-23T10:03:13;2.87;;;1.33;;
13263;SDS011;6700;51.988;7.646;2023-03-23T10:05:51;1.17;;;1.03;;
13263;SDS011;6700;51.988;7.646;2023-03-23T10:10:45;2.23;;;1.27;;
13263;SDS011;6700;51.988;7.646;2023-03-23T10:15:45;2.43;;;0.90;;
13263;SDS011;6700;51.988;7.646;2023-03-23T10:18:24;2.63;;;1.00;;
13263;SDS011;6700;51.988;7.646;2023-03-23T10:28:46;2.63;;;1.20;;
13263;SDS011;6700;51.988;7.646;2023-03-23T10:31:14;1.73;;;0.87;;
13263;SDS011;6700;51.988;7.646;2023-03-23T10:33:47;2.43;;;1.07;;
13263;SDS011;6700;51.988;7.646;2023-03-23T10:36:30;3.00;;;1.60;;
13263;SDS011;6700;51.988;7.646;2023-03-23T10:39:02;2.77;;;1.20;;
13263;SDS011;6700;51.988;7.646;2023-03-23T10:41:30;2.07;;;1.37;;
13263;SDS011;6700;51.988;7.646;2023-03-23T10:43:56;2.40;;;1.37;;
13263;SDS011;6700;51.988;7.646;2023-03-23T10:46:32;2.67;;;1.30;;
13263;SDS011;6700;51.988;7.646;2023-03-23T10:49:01;0.93;;;0.93;;
13263;SDS011;6700;51.988;7.646;2023-03-23T10:51:30;2.30;;;1.30;;
13263;SDS011;6700;51.988;7.646;2023-03-23T10:53:58;2.47;;;1.50;;
13263;SDS011;6700;51.988;7.646;2023-03-23T10:56:27;1.87;;;1.20;;
13263;SDS011;6700;51.988;7.646;2023-03-23T10:58:54;3.00;;;1.57;;
13263;SDS011;6700;51.988;7.646;2023-03-23T11:01:28;2.83;;;1.67;;
13263;SDS011;6700;51.988;7.646;2023-03-23T11:03:55;4.00;;;1.50;;
13263;SDS011;6700;51.988;7.646;2023-03-23T11:06:28;2.37;;;1.67;;
13263;SDS011;6700;51.988;7.646;2023-03-23T11:08:58;2.07;;;1.27;;
13263;SDS011;6700;51.988;7.646;2023-03-23T11:11:36;3.03;;;1.60;;
13263;SDS011;6700;51.988;7.646;2023-03-23T11:14:24;4.33;;;2.00;;
13263;SDS011;6700;51.988;7.646;2023-03-23T11:16:54;4.10;;;1.93;;
13263;SDS011;6700;51.988;7.646;2023-03-23T11:19:21;1.70;;;1.37;;
13263;SDS011;6700;51.988;7.646;2023-03-23T11:21:50;3.70;;;1.57;;
13263;SDS011;6700;51.988;7.646;2023-03-23T11:24:23;2.03;;;1.70;;
13263;SDS011;6700;51.988;7.646;2023-03-23T11:26:51;3.77;;;1.80;;
13263;SDS011;6700;51.988;7.646;2023-03-23T11:29:22;2.07;;;1.43;;
13263;SDS011;6700;51.988;7.646;2023-03-23T11:32:09;5.20;;;1.57;;
13263;SDS011;6700;51.988;7.646;2023-03-23T11:34:47;3.87;;;1.80;;
13263;SDS011;6700;51.988;7.646;2023-03-23T11:37:15;2.90;;;1.40;;
13263;SDS011;6700;51.988;7.646;2023-03-23T11:39:53;6.43;;;1.87;;
13263;SDS011;6700;51.988;7.646;2023-03-23T11:42:34;5.13;;;2.00;;
13263;SDS011;6700;51.988;7.646;2023-03-23T11:47:43;2.57;;;1.60;;
13263;SDS011;6700;51.988;7.646;2023-03-23T11:50:14;3.33;;;1.33;;
13263;SDS011;6700;51.988;7.646;2023-03-23T11:52:50;3.63;;;1.67;;
13263;SDS011;6700;51.988;7.646;2023-03-23T11:55:22;2.13;;;1.60;;
13263;SDS011;6700;51.988;7.646;2023-03-23T11:57:49;2.20;;;1.33;;
13263;SDS011;6700;51.988;7.646;2023-03-23T12:00:16;2.97;;;1.50;;
13263;SDS011;6700;51.988;7.646;2023-03-23T12:05:56;3.70;;;1.47;;
13263;SDS011;6700;51.988;7.646;2023-03-23T12:08:13;3.30;;;1.53;;
13263;SDS011;6700;51.988;7.646;2023-03-23T12:10:44;5.40;;;2.00;;
13263;SDS011;6700;51.988;7.646;2023-03-23T12:18:48;1.73;;;1.40;;
13263;SDS011;6700;51.988;7.646;2023-03-23T12:26:33;5.20;;;1.30;;
13263;SDS011;6700;51.988;7.646;2023-03-23T12:42:19;3.50;;;1.70;;
13263;SDS011;6700;51.988;7.646;2023-03-23T12:44:52;3.20;;;1.77;;
13263;SDS011;6700;51.988;7.646;2023-03-23T12:47:39;3.53;;;1.60;;
13263;SDS011;6700;51.988;7.646;2023-03-23T12:52:57;2.63;;;1.50;;
13263;SDS011;6700;51.988;7.646;2023-03-23T13:08:44;4.20;;;1.60;;
13263;SDS011;6700;51.988;7.646;2023-03-23T13:11:34;4.23;;;2.00;;
13263;SDS011;6700;51.988;7.646;2023-03-23T13:14:06;2.80;;;1.80;;
13263;SDS011;6700;51.988;7.646;2023-03-23T13:16:38;1.90;;;1.70;;
13263;SDS011;6700;51.988;7.646;2023-03-23T13:19:08;1.87;;;1.77;;
13263;SDS011;6700;51.988;7.646;2023-03-23T13:24:06;2.43;;;2.23;;
13263;SDS011;6700;51.988;7.646;2023-03-23T13:26:38;3.43;;;1.87;;
13263;SDS011;6700;51.988;7.646;2023-03-23T13:29:06;3.73;;;2.10;;
13263;SDS011;6700;51.988;7.646;2023-03-23T13:31:35;4.20;;;2.57;;
13263;SDS011;6700;51.988;7.646;2023-03-23T13:34:14;4.60;;;2.33;;
13263;SDS011;6700;51.988;7.646;2023-03-23T13:36:42;6.83;;;2.73;;
13263;SDS011;6700;51.988;7.646;2023-03-23T13:39:21;3.27;;;2.60;;
13263;SDS011;6700;51.988;7.646;2023-03-23T13:49:56;4.40;;;3.60;;
13263;SDS011;6700;51.988;7.646;2023-03-23T13:52:24;3.50;;;3.20;;
13263;SDS011;6700;51.988;7.646;2023-03-23T13:54:51;3.80;;;3.40;;
13263;SDS011;6700;51.988;7.646;2023-03-23T14:00:10;5.33;;;3.60;;
13263;SDS011;6700;51.988;7.646;2023-03-23T14:02:38;3.83;;;3.53;;
13263;SDS011;6700;51.988;7.646;2023-03-23T14:05:19;5.40;;;3.67;;
13263;SDS011;6700;51.988;7.646;2023-03-23T14:08:36;4.73;;;3.80;;
13263;SDS011;6700;51.988;7.646;2023-03-23T14:10:58;4.27;;;3.87;;
13263;SDS011;6700;51.988;7.646;2023-03-23T14:18:49;6.63;;;4.87;;
13263;SDS011;6700;51.988;7.646;2023-03-23T14:21:21;6.07;;;4.37;;
13263;SDS011;6700;51.988;7.646;2023-03-23T14:23:47;6.67;;;4.90;;
13263;SDS011;6700;51.988;7.646;2023-03-23T14:26:17;4.77;;;4.27;;
13263;SDS011;6700;51.988;7.646;2023-03-23T14:28:45;5.43;;;4.20;;
13263;SDS011;6700;51.988;7.646;2023-03-23T14:31:22;5.30;;;4.70;;
13263;SDS011;6700;51.988;7.646;2023-03-23T14:33:49;6.33;;;4.63;;
13263;SDS011;6700;51.988;7.646;2023-03-23T14:36:29;6.93;;;5.17;;
13263;SDS011;6700;51.988;7.646;2023-03-23T14:38:56;13.07;;;9.80;;
13263;SDS011;6700;51.988;7.646;2023-03-23T14:41:22;6.73;;;5.97;;
13263;SDS011;6700;51.988;7.646;2023-03-23T14:43:49;7.33;;;6.63;;
13263;SDS011;6700;51.988;7.646;2023-03-23T14:46:16;8.30;;;7.40;;
13263;SDS011;6700;51.988;7.646;2023-03-23T14:48:42;6.87;;;6.27;;
13263;SDS011;6700;51.988;7.646;2023-03-23T14:51:14;9.80;;;7.87;;
13263;SDS011;6700;51.988;7.646;2023-03-23T14:53:42;7.90;;;7.10;;
13263;SDS011;6700;51.988;7.646;2023-03-23T14:56:15;7.73;;;7.00;;
13263;SDS011;6700;51.988;7.646;2023-03-23T14:58:45;9.10;;;7.37;;
13263;SDS011;6700;51.988;7.646;2023-03-23T15:01:23;7.43;;;6.67;;
13263;SDS011;6700;51.988;7.646;2023-03-23T15:03:57;8.17;;;6.60;;
13263;SDS011;6700;51.988;7.646;2023-03-23T15:06:25;6.27;;;5.43;;
13263;SDS011;6700;51.988;7.646;2023-03-23T15:08:53;9.40;;;5.90;;
13263;SDS011;6700;51.988;7.646;2023-03-23T15:11:22;7.57;;;6.43;;
13263;SDS011;6700;51.988;7.646;2023-03-23T15:13:57;6.60;;;5.77;;
13263;SDS011;6700;51.988;7.646;2023-03-23T15:16:25;6.17;;;5.10;;
13263;SDS011;6700;51.988;7.646;2023-03-23T15:18:58;5.77;;;4.83;;
13263;SDS011;6700;51.988;7.646;2023-03-23T15:24:21;5.67;;;4.70;;
13263;SDS011;6700;51.988;7.646;2023-03-23T15:26:49;7.57;;;4.50;;
13263;SDS011;6700;51.988;7.646;2023-03-23T15:29:22;6.80;;;4.87;;
13263;SDS011;6700;51.988;7.646;2023-03-23T15:31:53;7.80;;;4.90;;
13263;SDS011;6700;51.988;7.646;2023-03-23T15:34:23;6.33;;;4.77;;
13263;SDS011;6700;51.988;7.646;2023-03-23T15:36:51;9.60;;;4.80;;
13263;SDS011;6700;51.988;7.646;2023-03-23T15:39:17;6.77;;;5.33;;
13263;SDS011;6700;51.988;7.646;2023-03-23T15:41:48;7.03;;;4.73;;
13263;SDS011;6700;51.988;7.646;2023-03-23T15:44:25;5.60;;;4.13;;
13263;SDS011;6700;51.988;7.646;2023-03-23T15:46:52;4.57;;;4.17;;
13263;SDS011;6700;51.988;7.646;2023-03-23T15:49:22;6.90;;;4.30;;
13263;SDS011;6700;51.988;7.646;2023-03-23T15:51:48;8.27;;;5.03;;
13263;SDS011;6700;51.988;7.646;2023-03-23T15:54:15;8.20;;;4.60;;
13263;SDS011;6700;51.988;7.646;2023-03-23T15:56:42;4.90;;;4.30;;
13263;SDS011;6700;51.988;7.646;2023-03-23T15:59:08;7.23;;;5.03;;
13263;SDS011;6700;51.988;7.646;2023-03-23T16:01:36;7.20;;;4.70;;
13263;SDS011;6700;51.988;7.646;2023-03-23T16:04:05;6.57;;;5.33;;
13263;SDS011;6700;51.988;7.646;2023-03-23T16:06:33;7.10;;;5.80;;
13263;SDS011;6700;51.988;7.646;2023-03-23T16:09:05;7.90;;;5.53;;
13263;SDS011;6700;51.988;7.646;2023-03-23T16:11:35;7.93;;;5.33;;
13263;SDS011;6700;51.988;7.646;2023-03-23T16:14:02;12.20;;;5.20;;
13263;SDS011;6700;51.988;7.646;2023-03-23T16:16:37;8.97;;;5.40;;
13263;SDS011;6700;51.988;7.646;2023-03-23T16:19:04;8.20;;;5.40;;
13263;SDS011;6700;51.988;7.646;2023-03-23T16:21:31;6.37;;;5.23;;
13263;SDS011;6700;51.988;7.646;2023-03-23T16:23:58;7.57;;;5.17;;
13263;SDS011;6700;51.988;7.646;2023-03-23T16:26:26;7.87;;;5.60;;
13263;SDS011;6700;51.988;7.646;2023-03-23T16:28:53;6.97;;;3.50;;
13263;SDS011;6700;51.988;7.646;2023-03-23T16:31:31;9.10;;;4.10;;
13263;SDS011;6700;51.988;7.646;2023-03-23T16:33:58;5.93;;;3.90;;
13263;SDS011;6700;51.988;7.646;2023-03-23T16:36:25;8.33;;;5.10;;
13263;SDS011;6700;51.988;7.646;2023-03-23T16:38:52;6.83;;;5.97;;
13263;SDS011;6700;51.988;7.646;2023-03-23T16:41:20;6.03;;;4.70;;
13263;SDS011;6700;51.988;7.646;2023-03-23T16:43:47;5.50;;;3.83;;